Accueil
METAR-TAF:

METAR-TAF

Aéroports :

Aéroport d'Ostende-Bruges

Ostende, Belgique

latitude: 51-12N, longitude: 002-52E, altitude: 4 m

Observation

Le bulletin a été fait il y a 28 minutes, à 16:50 UTC
Vent 13 kt de nord/nord-est
Température 4°C
Humidité 60%
Pression 1032 hPa
Visibilité 10 km ou plus
Quelques nuages à une hauteur de 3500 ft

METAR: EBOS 051650Z 03013KT 9999 FEW035 04/M03 Q1032 NOSIG

Heure: 18:18 (17:18 UTC)

Prévision

Le bulletin a été fait il y a 6 heures et 7 minutes, à 11:11 UTC
Prévision valable du 05 à 12 UTC au 06 à 18 UTC
Vent 13 kt de nord/nord-est
Visibilité 10 km ou plus
Quelques nuages à une hauteur de 3000 ft

TAF: EBOS 051111Z 0512/0618 03013KT 9999 FEW030

Observations et prévisions météorologiques de plus de 4000 aéroports (messages METAR et TAF).

Les stations disponibles sont représentées par des disques jaunes et rouges sur la carte.

Passer la souris dessus pour voir le nom de la station.

Cliquer dessus pour voir les observations et prévisions météorologiques.

Pour changer de carte: cliquez sur les boutons verts avec une croix noire pour zoomer, sur le bouton vert avec un tiret pour effectuer un zoom arrière, ou sur les flèches vertes pour les cartes adjacentes.


METAR-TAF: